sensor_id;sensor_type;location;lat;lon;timestamp;pressure;altitude;pressure_sealevel;temperature;humidity
28510;BME280;15723;55.684;37.928;2023-02-28T00:01:25;100592.75;;;-4.71;69.72
28510;BME280;15723;55.684;37.928;2023-02-28T00:03:51;100581.31;;;-4.64;69.78
28510;BME280;15723;55.684;37.928;2023-02-28T00:06:18;100576.91;;;-4.62;69.53
28510;BME280;15723;55.684;37.928;2023-02-28T00:08:44;100574.28;;;-4.62;69.85
28510;BME280;15723;55.684;37.928;2023-02-28T00:11:12;100560.34;;;-4.35;69.14
28510;BME280;15723;55.684;37.928;2023-02-28T00:13:41;100563.44;;;-4.92;70.36
28510;BME280;15723;55.684;37.928;2023-02-28T00:16:11;100562.72;;;-4.72;70.14
28510;BME280;15723;55.684;37.928;2023-02-28T00:18:39;100555.00;;;-4.43;69.77
28510;BME280;15723;55.684;37.928;2023-02-28T00:21:06;100561.97;;;-4.51;69.87
28510;BME280;15723;55.684;37.928;2023-02-28T00:23:33;100569.91;;;-4.52;69.30
28510;BME280;15723;55.684;37.928;2023-02-28T00:25:59;100566.22;;;-4.76;70.34
28510;BME280;15723;55.684;37.928;2023-02-28T00:28:25;100562.09;;;-4.32;69.63
28510;BME280;15723;55.684;37.928;2023-02-28T00:30:52;100550.47;;;-4.54;69.38
28510;BME280;15723;55.684;37.928;2023-02-28T00:33:18;100547.94;;;-4.39;68.89
28510;BME280;15723;55.684;37.928;2023-02-28T00:35:44;100551.44;;;-4.43;69.18
28510;BME280;15723;55.684;37.928;2023-02-28T00:38:13;100541.66;;;-4.50;69.65
28510;BME280;15723;55.684;37.928;2023-02-28T00:40:39;100547.81;;;-4.57;69.08
28510;BME280;15723;55.684;37.928;2023-02-28T00:43:05;100554.16;;;-4.35;68.95
28510;BME280;15723;55.684;37.928;2023-02-28T00:45:32;100550.63;;;-4.33;68.91
28510;BME280;15723;55.684;37.928;2023-02-28T00:47:58;100540.94;;;-4.28;68.40
28510;BME280;15723;55.684;37.928;2023-02-28T00:50:24;100537.06;;;-4.82;69.18
28510;BME280;15723;55.684;37.928;2023-02-28T00:52:51;100535.59;;;-4.34;68.40
28510;BME280;15723;55.684;37.928;2023-02-28T00:55:17;100528.56;;;-4.24;67.84
28510;BME280;15723;55.684;37.928;2023-02-28T00:57:44;100518.66;;;-4.57;68.71
28510;BME280;15723;55.684;37.928;2023-02-28T01:00:10;100514.25;;;-4.54;69.51
28510;BME280;15723;55.684;37.928;2023-02-28T01:02:37;100516.84;;;-4.64;69.34
28510;BME280;15723;55.684;37.928;2023-02-28T01:05:03;100507.13;;;-4.68;69.57
28510;BME280;15723;55.684;37.928;2023-02-28T01:07:30;100507.97;;;-4.71;69.19
28510;BME280;15723;55.684;37.928;2023-02-28T01:09:57;100509.78;;;-4.65;69.15
28510;BME280;15723;55.684;37.928;2023-02-28T01:12:24;100500.91;;;-4.74;69.66
28510;BME280;15723;55.684;37.928;2023-02-28T01:14:51;100501.66;;;-4.90;69.31
28510;BME280;15723;55.684;37.928;2023-02-28T01:17:17;100497.44;;;-4.60;69.45
28510;BME280;15723;55.684;37.928;2023-02-28T01:19:43;100488.41;;;-4.88;69.63
28510;BME280;15723;55.684;37.928;2023-02-28T01:22:09;100482.25;;;-4.87;68.95
28510;BME280;15723;55.684;37.928;2023-02-28T01:24:37;100479.81;;;-4.54;69.04
28510;BME280;15723;55.684;37.928;2023-02-28T01:27:03;100474.44;;;-4.69;69.21
28510;BME280;15723;55.684;37.928;2023-02-28T01:29:29;100475.34;;;-4.65;69.00
28510;BME280;15723;55.684;37.928;2023-02-28T01:31:56;100467.44;;;-4.58;69.13
28510;BME280;15723;55.684;37.928;2023-02-28T01:34:22;100461.94;;;-4.88;69.79
28510;BME280;15723;55.684;37.928;2023-02-28T01:36:50;100456.50;;;-5.11;69.04
28510;BME280;15723;55.684;37.928;2023-02-28T01:39:18;100459.75;;;-5.44;70.19
28510;BME280;15723;55.684;37.928;2023-02-28T01:41:44;100464.59;;;-4.88;69.45
28510;BME280;15723;55.684;37.928;2023-02-28T01:47:14;100447.53;;;-5.28;69.19
28510;BME280;15723;55.684;37.928;2023-02-28T01:49:41;100451.28;;;-4.99;68.87
28510;BME280;15723;55.684;37.928;2023-02-28T01:52:08;100444.88;;;-5.28;69.47
28510;BME280;15723;55.684;37.928;2023-02-28T01:54:40;100439.75;;;-5.09;69.26
28510;BME280;15723;55.684;37.928;2023-02-28T01:57:14;100429.28;;;-4.87;68.11
28510;BME280;15723;55.684;37.928;2023-02-28T01:59:45;100423.03;;;-5.03;68.56
28510;BME280;15723;55.684;37.928;2023-02-28T02:02:18;100421.16;;;-5.19;68.77
28510;BME280;15723;55.684;37.928;2023-02-28T02:04:53;100423.66;;;-5.36;69.05
28510;BME280;15723;55.684;37.928;2023-02-28T02:07:21;100425.44;;;-5.33;68.94
28510;BME280;15723;55.684;37.928;2023-02-28T02:09:49;100414.81;;;-5.38;68.99
28510;BME280;15723;55.684;37.928;2023-02-28T02:12:27;100412.84;;;-5.63;69.49
28510;BME280;15723;55.684;37.928;2023-02-28T02:15:17;100410.13;;;-5.70;69.41
28510;BME280;15723;55.684;37.928;2023-02-28T02:17:53;100407.72;;;-5.47;68.95
28510;BME280;15723;55.684;37.928;2023-02-28T02:32:47;100397.81;;;-5.69;69.22
28510;BME280;15723;55.684;37.928;2023-02-28T02:35:21;100387.13;;;-5.80;69.72
28510;BME280;15723;55.684;37.928;2023-02-28T02:40:46;100387.09;;;-5.90;70.07
28510;BME280;15723;55.684;37.928;2023-02-28T02:43:20;100393.28;;;-5.82;70.01
28510;BME280;15723;55.684;37.928;2023-02-28T02:45:56;100377.53;;;-5.70;69.48
28510;BME280;15723;55.684;37.928;2023-02-28T02:48:26;100380.03;;;-5.90;69.85
28510;BME280;15723;55.684;37.928;2023-02-28T02:50:58;100374.00;;;-5.69;69.31
28510;BME280;15723;55.684;37.928;2023-02-28T02:53:41;100375.63;;;-5.88;69.74
28510;BME280;15723;55.684;37.928;2023-02-28T02:56:08;100365.19;;;-5.68;69.08
28510;BME280;15723;55.684;37.928;2023-02-28T02:58:40;100360.75;;;-5.74;69.59
28510;BME280;15723;55.684;37.928;2023-02-28T03:01:14;100359.84;;;-5.74;69.83
28510;BME280;15723;55.684;37.928;2023-02-28T03:03:42;100358.94;;;-5.78;69.74
28510;BME280;15723;55.684;37.928;2023-02-28T03:06:09;100350.22;;;-5.66;69.31
28510;BME280;15723;55.684;37.928;2023-02-28T03:08:37;100347.50;;;-5.75;69.57
28510;BME280;15723;55.684;37.928;2023-02-28T03:11:07;100347.44;;;-5.84;69.47
28510;BME280;15723;55.684;37.928;2023-02-28T03:14:14;100338.59;;;-5.94;69.96
28510;BME280;15723;55.684;37.928;2023-02-28T03:22:56;100328.03;;;-5.89;69.19
28510;BME280;15723;55.684;37.928;2023-02-28T03:28:18;100322.94;;;-5.59;69.35
28510;BME280;15723;55.684;37.928;2023-02-28T03:33:59;100308.03;;;-5.52;69.25
28510;BME280;15723;55.684;37.928;2023-02-28T03:36:41;100309.66;;;-5.67;68.91
28510;BME280;15723;55.684;37.928;2023-02-28T03:39:20;100303.53;;;-5.59;69.25
28510;BME280;15723;55.684;37.928;2023-02-28T03:42:21;100294.91;;;-5.29;68.14
28510;BME280;15723;55.684;37.928;2023-02-28T03:44:54;100278.03;;;-5.53;68.64
28510;BME280;15723;55.684;37.928;2023-02-28T03:47:47;100277.06;;;-5.66;69.02
28510;BME280;15723;55.684;37.928;2023-02-28T03:56:12;100290.31;;;-5.59;68.80
28510;BME280;15723;55.684;37.928;2023-02-28T04:01:30;100258.69;;;-5.40;67.64
28510;BME280;15723;55.684;37.928;2023-02-28T04:03:59;100253.44;;;-5.35;67.68
28510;BME280;15723;55.684;37.928;2023-02-28T04:06:25;100251.66;;;-5.39;67.78
28510;BME280;15723;55.684;37.928;2023-02-28T04:08:52;100246.38;;;-5.31;67.52
28510;BME280;15723;55.684;37.928;2023-02-28T04:11:54;100239.25;;;-5.48;67.16
28510;BME280;15723;55.684;37.928;2023-02-28T04:14:14;100223.47;;;-5.23;67.18
28510;BME280;15723;55.684;37.928;2023-02-28T04:16:41;100219.00;;;-5.40;67.38
28510;BME280;15723;55.684;37.928;2023-02-28T04:19:09;100223.44;;;-5.39;67.63
28510;BME280;15723;55.684;37.928;2023-02-28T04:21:41;100217.13;;;-5.63;67.78
28510;BME280;15723;55.684;37.928;2023-02-28T04:24:10;100226.91;;;-5.49;67.71
28510;BME280;15723;55.684;37.928;2023-02-28T04:26:41;100210.25;;;-5.23;67.27
28510;BME280;15723;55.684;37.928;2023-02-28T04:29:11;100213.88;;;-5.03;66.28
28510;BME280;15723;55.684;37.928;2023-02-28T04:31:38;100214.78;;;-4.90;66.12
28510;BME280;15723;55.684;37.928;2023-02-28T04:34:05;100215.66;;;-4.91;65.21
28510;BME280;15723;55.684;37.928;2023-02-28T04:36:31;100216.59;;;-4.79;64.72
28510;BME280;15723;55.684;37.928;2023-02-28T04:38:58;100219.31;;;-4.24;64.59
28510;BME280;15723;55.684;37.928;2023-02-28T04:41:24;100201.59;;;-3.81;62.48
28510;BME280;15723;55.684;37.928;2023-02-28T04:43:51;100187.34;;;-3.46;60.52
28510;BME280;15723;55.684;37.928;2023-02-28T04:46:19;100183.38;;;-2.63;58.70
28510;BME280;15723;55.684;37.928;2023-02-28T04:48:46;100175.25;;;-2.38;57.80
28510;BME280;15723;55.684;37.928;2023-02-28T04:51:14;100164.59;;;-2.38;57.77
28510;BME280;15723;55.684;37.928;2023-02-28T04:53:42;100163.25;;;-1.89;56.37
28510;BME280;15723;55.684;37.928;2023-02-28T04:56:11;100150.88;;;-1.16;54.79
28510;BME280;15723;55.684;37.928;2023-02-28T04:58:38;100151.72;;;-0.49;52.92
28510;BME280;15723;55.684;37.928;2023-02-28T05:01:20;100129.97;;;0.24;50.98
28510;BME280;15723;55.684;37.928;2023-02-28T05:03:47;100129.34;;;0.56;48.15
28510;BME280;15723;55.684;37.928;2023-02-28T05:06:14;100120.56;;;2.37;46.47
28510;BME280;15723;55.684;37.928;2023-02-28T05:08:41;100121.22;;;2.45;45.94
28510;BME280;15723;55.684;37.928;2023-02-28T05:11:14;100100.75;;;3.59;43.07
28510;BME280;15723;55.684;37.928;2023-02-28T05:13:40;100098.63;;;4.21;42.32
28510;BME280;15723;55.684;37.928;2023-02-28T05:16:07;100097.06;;;4.39;40.46
28510;BME280;15723;55.684;37.928;2023-02-28T05:18:34;100082.22;;;5.00;38.51
28510;BME280;15723;55.684;37.928;2023-02-28T05:21:00;100075.75;;;6.14;37.78
28510;BME280;15723;55.684;37.928;2023-02-28T05:23:29;100080.78;;;5.59;37.46
28510;BME280;15723;55.684;37.928;2023-02-28T05:25:56;100051.28;;;5.34;37.76
28510;BME280;15723;55.684;37.928;2023-02-28T05:28:22;100046.03;;;6.15;35.74
28510;BME280;15723;55.684;37.928;2023-02-28T05:30:48;100049.41;;;6.80;35.06
28510;BME280;15723;55.684;37.928;2023-02-28T05:33:14;100026.31;;;6.54;35.51
28510;BME280;15723;55.684;37.928;2023-02-28T05:35:41;100018.25;;;6.92;33.69
28510;BME280;15723;55.684;37.928;2023-02-28T05:38:10;100011.94;;;7.65;33.97
28510;BME280;15723;55.684;37.928;2023-02-28T05:40:38;100007.03;;;6.82;34.29
28510;BME280;15723;55.684;37.928;2023-02-28T05:43:06;99986.59;;;7.50;32.14
28510;BME280;15723;55.684;37.928;2023-02-28T05:45:33;99987.91;;;7.41;31.83
28510;BME280;15723;55.684;37.928;2023-02-28T05:48:00;99987.94;;;7.76;32.17
28510;BME280;15723;55.684;37.928;2023-02-28T05:50:26;99980.47;;;7.98;32.05
28510;BME280;15723;55.684;37.928;2023-02-28T05:52:52;99974.69;;;8.56;31.34
28510;BME280;15723;55.684;37.928;2023-02-28T05:55:18;99984.84;;;9.16;30.74
28510;BME280;15723;55.684;37.928;2023-02-28T05:57:45;99965.13;;;7.47;31.91
28510;BME280;15723;55.684;37.928;2023-02-28T06:00:11;99974.25;;;8.31;30.77
28510;BME280;15723;55.684;37.928;2023-02-28T06:02:40;99977.72;;;7.82;30.23
28510;BME280;15723;55.684;37.928;2023-02-28T06:05:14;99970.41;;;8.18;30.34
28510;BME280;15723;55.684;37.928;2023-02-28T06:07:41;99964.75;;;9.20;29.35
28510;BME280;15723;55.684;37.928;2023-02-28T06:10:08;99949.78;;;9.44;28.84
28510;BME280;15723;55.684;37.928;2023-02-28T06:12:35;99946.94;;;8.84;29.11
28510;BME280;15723;55.684;37.928;2023-02-28T06:15:01;99928.59;;;9.81;28.46
28510;BME280;15723;55.684;37.928;2023-02-28T06:17:29;99930.31;;;7.75;30.17
28510;BME280;15723;55.684;37.928;2023-02-28T06:19:55;99929.38;;;6.51;32.58
28510;BME280;15723;55.684;37.928;2023-02-28T06:22:22;99928.13;;;4.97;33.37
28510;BME280;15723;55.684;37.928;2023-02-28T06:24:48;99907.50;;;6.57;31.86
28510;BME280;15723;55.684;37.928;2023-02-28T06:27:14;99888.78;;;9.07;29.27
28510;BME280;15723;55.684;37.928;2023-02-28T06:29:40;99880.88;;;8.57;29.75
28510;BME280;15723;55.684;37.928;2023-02-28T06:32:06;99886.97;;;9.67;27.67
28510;BME280;15723;55.684;37.928;2023-02-28T06:34:32;99873.75;;;10.06;27.13
28510;BME280;15723;55.684;37.928;2023-02-28T06:36:59;99876.00;;;11.37;27.10
28510;BME280;15723;55.684;37.928;2023-02-28T06:39:29;99888.78;;;10.54;27.09
28510;BME280;15723;55.684;37.928;2023-02-28T06:41:55;99867.34;;;10.35;27.98
28510;BME280;15723;55.684;37.928;2023-02-28T06:44:23;99880.50;;;8.63;29.77
28510;BME280;15723;55.684;37.928;2023-02-28T06:46:52;99883.53;;;9.04;29.32
28510;BME280;15723;55.684;37.928;2023-02-28T06:49:18;99888.03;;;7.05;31.63
28510;BME280;15723;55.684;37.928;2023-02-28T06:51:45;99871.56;;;4.77;35.60
28510;BME280;15723;55.684;37.928;2023-02-28T06:54:12;99886.06;;;4.29;36.75
28510;BME280;15723;55.684;37.928;2023-02-28T06:56:39;99875.41;;;4.71;36.51
28510;BME280;15723;55.684;37.928;2023-02-28T06:59:06;99853.53;;;3.66;37.80
28510;BME280;15723;55.684;37.928;2023-02-28T07:01:32;99850.13;;;4.08;37.71
28510;BME280;15723;55.684;37.928;2023-02-28T07:03:59;99853.38;;;4.18;37.27
28510;BME280;15723;55.684;37.928;2023-02-28T07:06:26;99829.56;;;4.74;36.80
28510;BME280;15723;55.684;37.928;2023-02-28T07:08:53;99826.25;;;4.67;37.28
28510;BME280;15723;55.684;37.928;2023-02-28T07:11:20;99824.41;;;5.10;36.95
28510;BME280;15723;55.684;37.928;2023-02-28T07:13:49;99799.44;;;4.66;37.58
28510;BME280;15723;55.684;37.928;2023-02-28T07:16:18;99804.66;;;4.49;38.12
28510;BME280;15723;55.684;37.928;2023-02-28T07:18:45;99805.22;;;4.77;36.90
28510;BME280;15723;55.684;37.928;2023-02-28T07:21:11;99805.44;;;5.13;36.97
28510;BME280;15723;55.684;37.928;2023-02-28T07:23:38;99799.44;;;4.66;37.88
28510;BME280;15723;55.684;37.928;2023-02-28T07:26:06;99777.81;;;5.10;37.53
28510;BME280;15723;55.684;37.928;2023-02-28T07:28:33;99782.22;;;4.70;37.72
28510;BME280;15723;55.684;37.928;2023-02-28T07:31:06;99778.63;;;4.27;38.89
28510;BME280;15723;55.684;37.928;2023-02-28T07:33:33;99774.94;;;4.52;38.28
28510;BME280;15723;55.684;37.928;2023-02-28T07:36:02;99765.78;;;2.95;41.12
28510;BME280;15723;55.684;37.928;2023-02-28T07:38:28;99768.53;;;4.12;40.21
28510;BME280;15723;55.684;37.928;2023-02-28T07:40:54;99754.31;;;4.08;40.67
28510;BME280;15723;55.684;37.928;2023-02-28T07:43:20;99745.28;;;3.66;40.70
28510;BME280;15723;55.684;37.928;2023-02-28T07:45:46;99739.00;;;4.75;39.75
28510;BME280;15723;55.684;37.928;2023-02-28T07:48:12;99739.13;;;4.29;40.46
28510;BME280;15723;55.684;37.928;2023-02-28T07:50:38;99747.63;;;3.52;40.58
28510;BME280;15723;55.684;37.928;2023-02-28T07:53:04;99728.97;;;4.78;40.54
28510;BME280;15723;55.684;37.928;2023-02-28T07:55:31;99750.91;;;4.69;40.53
28510;BME280;15723;55.684;37.928;2023-02-28T07:57:57;99749.38;;;3.53;43.08
28510;BME280;15723;55.684;37.928;2023-02-28T08:00:24;99744.63;;;3.12;43.37
28510;BME280;15723;55.684;37.928;2023-02-28T08:02:50;99748.81;;;3.20;43.50
28510;BME280;15723;55.684;37.928;2023-02-28T08:05:17;99739.91;;;4.11;42.96
28510;BME280;15723;55.684;37.928;2023-02-28T08:07:43;99727.09;;;5.21;41.34
28510;BME280;15723;55.684;37.928;2023-02-28T08:10:10;99721.97;;;3.90;43.17
28510;BME280;15723;55.684;37.928;2023-02-28T08:12:36;99736.97;;;4.80;42.17
28510;BME280;15723;55.684;37.928;2023-02-28T08:15:02;99711.50;;;4.48;42.45
28510;BME280;15723;55.684;37.928;2023-02-28T08:17:30;99710.72;;;4.24;43.08
28510;BME280;15723;55.684;37.928;2023-02-28T08:19:56;99719.66;;;4.45;43.81
28510;BME280;15723;55.684;37.928;2023-02-28T08:22:22;99699.19;;;4.42;43.90
28510;BME280;15723;55.684;37.928;2023-02-28T08:24:48;99697.44;;;4.41;44.19
28510;BME280;15723;55.684;37.928;2023-02-28T08:27:15;99669.59;;;4.22;44.40
28510;BME280;15723;55.684;37.928;2023-02-28T08:29:40;99686.91;;;4.77;43.74
28510;BME280;15723;55.684;37.928;2023-02-28T08:32:07;99675.88;;;3.79;44.70
28510;BME280;15723;55.684;37.928;2023-02-28T08:34:33;99663.50;;;4.18;45.09
28510;BME280;15723;55.684;37.928;2023-02-28T08:36:59;99648.38;;;4.36;43.73
28510;BME280;15723;55.684;37.928;2023-02-28T08:39:26;99641.31;;;4.74;43.95
28510;BME280;15723;55.684;37.928;2023-02-28T08:41:52;99626.88;;;6.08;41.54
28510;BME280;15723;55.684;37.928;2023-02-28T08:44:18;99653.41;;;5.42;42.04
28510;BME280;15723;55.684;37.928;2023-02-28T08:46:44;99658.81;;;5.42;42.25
28510;BME280;15723;55.684;37.928;2023-02-28T08:49:10;99667.16;;;5.36;42.95
28510;BME280;15723;55.684;37.928;2023-02-28T08:51:38;99692.91;;;4.84;44.35
28510;BME280;15723;55.684;37.928;2023-02-28T08:54:04;99703.03;;;4.15;45.28
28510;BME280;15723;55.684;37.928;2023-02-28T08:56:30;99700.22;;;3.74;46.20
28510;BME280;15723;55.684;37.928;2023-02-28T08:58:57;99698.84;;;3.86;45.99
28510;BME280;15723;55.684;37.928;2023-02-28T09:01:28;99694.34;;;3.18;47.43
28510;BME280;15723;55.684;37.928;2023-02-28T09:03:55;99690.44;;;3.50;47.56
28510;BME280;15723;55.684;37.928;2023-02-28T09:06:24;99695.53;;;4.23;47.43
28510;BME280;15723;55.684;37.928;2023-02-28T09:08:51;99694.53;;;3.13;50.37
28510;BME280;15723;55.684;37.928;2023-02-28T09:11:18;99683.56;;;2.46;51.15
28510;BME280;15723;55.684;37.928;2023-02-28T09:13:45;99687.53;;;2.61;51.44
28510;BME280;15723;55.684;37.928;2023-02-28T09:16:14;99670.28;;;2.43;50.93
28510;BME280;15723;55.684;37.928;2023-02-28T09:18:40;99655.69;;;2.27;51.47
28510;BME280;15723;55.684;37.928;2023-02-28T09:21:08;99644.34;;;2.18;52.28
28510;BME280;15723;55.684;37.928;2023-02-28T09:23:35;99619.06;;;3.45;49.31
28510;BME280;15723;55.684;37.928;2023-02-28T09:26:04;99617.94;;;3.51;49.18
28510;BME280;15723;55.684;37.928;2023-02-28T09:28:30;99625.38;;;3.44;48.83
28510;BME280;15723;55.684;37.928;2023-02-28T09:30:57;99626.16;;;3.68;48.05
28510;BME280;15723;55.684;37.928;2023-02-28T09:33:25;99619.59;;;3.32;48.45
28510;BME280;15723;55.684;37.928;2023-02-28T09:35:58;99616.63;;;3.61;47.80
28510;BME280;15723;55.684;37.928;2023-02-28T09:38:26;99611.41;;;3.13;49.65
28510;BME280;15723;55.684;37.928;2023-02-28T09:40:56;99631.53;;;3.68;48.78
28510;BME280;15723;55.684;37.928;2023-02-28T09:43:26;99639.94;;;2.91;49.90
28510;BME280;15723;55.684;37.928;2023-02-28T09:45:59;99643.03;;;2.80;49.16
28510;BME280;15723;55.684;37.928;2023-02-28T09:48:35;99634.72;;;3.11;50.06
28510;BME280;15723;55.684;37.928;2023-02-28T09:51:09;99633.06;;;2.83;50.26
28510;BME280;15723;55.684;37.928;2023-02-28T09:53:38;99622.66;;;2.99;49.80
28510;BME280;15723;55.684;37.928;2023-02-28T09:58:51;99617.84;;;3.31;49.36
28510;BME280;15723;55.684;37.928;2023-02-28T10:01:31;99610.19;;;2.75;49.72
28510;BME280;15723;55.684;37.928;2023-02-28T10:06:48;99593.69;;;3.31;50.79
28510;BME280;15723;55.684;37.928;2023-02-28T10:09:27;99591.72;;;2.42;52.44
28510;BME280;15723;55.684;37.928;2023-02-28T10:12:02;99596.25;;;2.89;51.34
28510;BME280;15723;55.684;37.928;2023-02-28T10:14:32;99580.91;;;2.92;51.64
28510;BME280;15723;55.684;37.928;2023-02-28T10:17:12;99579.81;;;2.26;52.45
28510;BME280;15723;55.684;37.928;2023-02-28T10:22:24;99564.44;;;2.79;51.17
28510;BME280;15723;55.684;37.928;2023-02-28T10:24:53;99551.53;;;2.89;52.14
28510;BME280;15723;55.684;37.928;2023-02-28T10:27:31;99561.13;;;2.00;53.57
28510;BME280;15723;55.684;37.928;2023-02-28T10:30:03;99546.38;;;2.13;53.78
28510;BME280;15723;55.684;37.928;2023-02-28T10:32:33;99540.41;;;2.30;53.31
28510;BME280;15723;55.684;37.928;2023-02-28T10:35:00;99550.41;;;2.25;53.45
28510;BME280;15723;55.684;37.928;2023-02-28T10:37:32;99550.06;;;2.09;54.29
28510;BME280;15723;55.684;37.928;2023-02-28T10:40:28;99539.94;;;2.42;53.47
28510;BME280;15723;55.684;37.928;2023-02-28T10:42:59;99542.22;;;2.29;54.40
28510;BME280;15723;55.684;37.928;2023-02-28T10:45:28;99545.31;;;2.42;54.30
28510;BME280;15723;55.684;37.928;2023-02-28T10:48:04;99543.22;;;2.50;53.85
28510;BME280;15723;55.684;37.928;2023-02-28T10:58:52;99533.47;;;2.47;53.54
28510;BME280;15723;55.684;37.928;2023-02-28T11:03:53;99524.44;;;1.77;55.05
28510;BME280;15723;55.684;37.928;2023-02-28T11:06:22;99516.91;;;2.13;54.16
28510;BME280;15723;55.684;37.928;2023-02-28T11:11:17;99516.41;;;1.77;56.28
28510;BME280;15723;55.684;37.928;2023-02-28T11:13:46;99511.72;;;2.08;55.16
28510;BME280;15723;55.684;37.928;2023-02-28T11:16:13;99507.78;;;2.18;56.23
28510;BME280;15723;55.684;37.928;2023-02-28T11:18:47;99500.75;;;2.39;54.38
28510;BME280;15723;55.684;37.928;2023-02-28T11:21:33;99504.94;;;1.73;56.12
28510;BME280;15723;55.684;37.928;2023-02-28T11:24:12;99498.84;;;2.66;54.28
28510;BME280;15723;55.684;37.928;2023-02-28T11:26:47;99501.34;;;2.71;55.02
28510;BME280;15723;55.684;37.928;2023-02-28T11:29:22;99495.56;;;2.35;54.87
28510;BME280;15723;55.684;37.928;2023-02-28T11:32:12;99490.88;;;2.16;54.66
28510;BME280;15723;55.684;37.928;2023-02-28T11:34:40;99485.78;;;2.57;55.05
28510;BME280;15723;55.684;37.928;2023-02-28T11:37:17;99484.69;;;1.66;57.03
28510;BME280;15723;55.684;37.928;2023-02-28T11:39:45;99473.63;;;2.48;54.90
28510;BME280;15723;55.684;37.928;2023-02-28T11:42:30;99468.03;;;2.31;55.11
28510;BME280;15723;55.684;37.928;2023-02-28T11:45:08;99470.47;;;2.37;55.55
28510;BME280;15723;55.684;37.928;2023-02-28T11:47:53;99476.41;;;2.69;54.84
28510;BME280;15723;55.684;37.928;2023-02-28T11:50:40;99476.38;;;3.14;53.97
28510;BME280;15723;55.684;37.928;2023-02-28T11:53:22;99470.19;;;2.90;55.23
28510;BME280;15723;55.684;37.928;2023-02-28T12:02:23;99455.66;;;3.18;55.01
28510;BME280;15723;55.684;37.928;2023-02-28T12:07:18;99471.63;;;2.99;56.76
28510;BME280;15723;55.684;37.928;2023-02-28T12:15:58;99440.13;;;2.82;59.18
28510;BME280;15723;55.684;37.928;2023-02-28T12:26:32;99440.00;;;2.85;58.56
28510;BME280;15723;55.684;37.928;2023-02-28T12:32:43;99446.31;;;2.62;58.58
28510;BME280;15723;55.684;37.928;2023-02-28T12:34:49;99439.13;;;2.16;58.90
28510;BME280;15723;55.684;37.928;2023-02-28T12:37:22;99423.19;;;2.81;58.12
28510;BME280;15723;55.684;37.928;2023-02-28T12:39:55;99429.91;;;2.92;57.27
28510;BME280;15723;55.684;37.928;2023-02-28T12:42:30;99429.81;;;2.49;58.80
28510;BME280;15723;55.684;37.928;2023-02-28T12:45:15;99412.59;;;2.33;58.14
28510;BME280;15723;55.684;37.928;2023-02-28T12:47:46;99407.25;;;2.55;59.77
28510;BME280;15723;55.684;37.928;2023-02-28T12:50:15;99394.59;;;2.60;58.58
28510;BME280;15723;55.684;37.928;2023-02-28T12:53:17;99397.84;;;2.45;58.73
28510;BME280;15723;55.684;37.928;2023-02-28T12:58:56;99378.25;;;2.21;61.46
28510;BME280;15723;55.684;37.928;2023-02-28T13:01:56;99370.56;;;2.57;60.27
28510;BME280;15723;55.684;37.928;2023-02-28T13:04:36;99361.25;;;3.09;59.14
28510;BME280;15723;55.684;37.928;2023-02-28T13:10:05;99344.97;;;3.14;58.38
28510;BME280;15723;55.684;37.928;2023-02-28T13:12:34;99357.84;;;2.84;58.32
28510;BME280;15723;55.684;37.928;2023-02-28T13:15:22;99347.53;;;2.08;59.02
28510;BME280;15723;55.684;37.928;2023-02-28T13:17:52;99353.41;;;2.17;60.55
28510;BME280;15723;55.684;37.928;2023-02-28T13:20:33;99348.19;;;2.36;60.05
28510;BME280;15723;55.684;37.928;2023-02-28T13:23:00;99339.81;;;2.67;59.13
28510;BME280;15723;55.684;37.928;2023-02-28T13:28:03;99349.34;;;1.84;60.82
28510;BME280;15723;55.684;37.928;2023-02-28T13:33:29;99353.22;;;1.52;62.52
28510;BME280;15723;55.684;37.928;2023-02-28T13:36:08;99344.47;;;1.95;61.46
28510;BME280;15723;55.684;37.928;2023-02-28T13:38:38;99336.00;;;2.06;61.39
28510;BME280;15723;55.684;37.928;2023-02-28T13:44:09;99330.91;;;2.00;61.02
28510;BME280;15723;55.684;37.928;2023-02-28T13:54:54;99313.91;;;2.23;60.14
28510;BME280;15723;55.684;37.928;2023-02-28T14:00:33;99302.41;;;1.75;61.90
28510;BME280;15723;55.684;37.928;2023-02-28T14:06:25;99304.72;;;0.88;64.32
28510;BME280;15723;55.684;37.928;2023-02-28T14:09:02;99314.69;;;0.83;64.31
28510;BME280;15723;55.684;37.928;2023-02-28T14:11:35;99314.28;;;0.69;65.67
28510;BME280;15723;55.684;37.928;2023-02-28T14:14:04;99313.56;;;0.90;65.31
28510;BME280;15723;55.684;37.928;2023-02-28T14:19:16;99316.00;;;0.70;66.42
28510;BME280;15723;55.684;37.928;2023-02-28T14:36:53;99297.75;;;0.84;67.64
28510;BME280;15723;55.684;37.928;2023-02-28T14:39:22;99289.63;;;0.60;68.29
28510;BME280;15723;55.684;37.928;2023-02-28T14:41:51;99292.06;;;0.14;69.46
28510;BME280;15723;55.684;37.928;2023-02-28T14:44:26;99287.94;;;0.58;69.52
28510;BME280;15723;55.684;37.928;2023-02-28T14:46:57;99284.13;;;0.65;68.87
28510;BME280;15723;55.684;37.928;2023-02-28T14:49:34;99282.25;;;0.14;71.10
28510;BME280;15723;55.684;37.928;2023-02-28T14:52:17;99276.78;;;0.19;71.36
28510;BME280;15723;55.684;37.928;2023-02-28T14:54:44;99265.88;;;0.25;71.59
28510;BME280;15723;55.684;37.928;2023-02-28T14:57:28;99255.69;;;0.11;72.17
28510;BME280;15723;55.684;37.928;2023-02-28T15:02:38;99268.47;;;0.28;72.49
28510;BME280;15723;55.684;37.928;2023-02-28T15:05:23;99257.41;;;0.40;71.65
28510;BME280;15723;55.684;37.928;2023-02-28T15:08:14;99260.84;;;0.69;71.18
28510;BME280;15723;55.684;37.928;2023-02-28T15:10:50;99279.28;;;0.23;72.20
28510;BME280;15723;55.684;37.928;2023-02-28T15:13:19;99275.78;;;0.49;72.32
28510;BME280;15723;55.684;37.928;2023-02-28T15:15:55;99277.53;;;0.22;72.47
28510;BME280;15723;55.684;37.928;2023-02-28T15:18:30;99266.50;;;0.59;71.72
28510;BME280;15723;55.684;37.928;2023-02-28T15:21:02;99268.38;;;0.57;71.81
28510;BME280;15723;55.684;37.928;2023-02-28T15:23:30;99250.06;;;0.72;71.52
28510;BME280;15723;55.684;37.928;2023-02-28T15:25:57;99257.88;;;0.78;71.74